XAAA weather

Zhetygen Airport
Iliysk, Almaty Region, Kazakhstan

Public forecast

Using degrees Celsius for public forecast. Weather courtesy of forecast.io.

Closest aviation weather report (METAR) to Zhetygen Airport

Closest report is Almaty Airport, 23.1 nm (42.8 km) S. Retrieved 2019/12/13 15:30 UTC (24 minutes ago):

UAAA 131530Z 23001MPS 1300 R05L/P2000 R05R/P2000U BR FU OVC030 02/00 Q1016 R88/1///60 NOSIG

Closest aviation forecast (TAF) to Zhetygen Airport

Closest forecast is Almaty Airport, 23.1 nm (42.8 km) S. Retrieved 2019/12/13 12:21 UTC (4 hours ago):

TAF UAAA 131100Z 1312/1412 20003MPS 1200 BR BKN011CB OVC100 TX00/1406Z TNM04/1401Z TEMPO 1313/1324 16003MPS 0300 -FZRA FZFG VV001 TEMPO 1400/1406 24003G10MPS -SHRASN BKN005 OVC011CB BECMG 1406/1407 3100 -SHSN BR